Time;durP1;ratioP1;P1;durP2;ratioP2;P2;SDS_P1;SDS_P2;PMS_P1;PMS_P2;Temp;Humidity;BMP_temperature;BMP_pressure;BME280_temperature;BME280_humidity;BME280_pressure;Samples;Min_cycle;Max_cycle;Signal;HPM_P1;HPM_P2
2022/02/18 00:00:48;;;;;;;32.83;18.50;;;;;;;4.23;100.00;96259.06;1724780;82;21043;-71
2022/02/18 00:03:16;;;;;;;30.60;17.43;;;;;;;4.24;100.00;96241.18;1711357;82;20999;-71
2022/02/18 00:05:43;;;;;;;30.33;17.40;;;;;;;4.24;100.00;96221.13;1712636;82;21078;-71
2022/02/18 00:08:10;;;;;;;33.00;18.93;;;;;;;4.24;100.00;96216.58;1709613;82;21058;-71
2022/02/18 00:10:37;;;;;;;32.20;19.50;;;;;;;4.28;100.00;96211.60;1690642;82;21106;-71
2022/02/18 00:13:05;;;;;;;37.20;19.43;;;;;;;4.27;100.00;96197.42;1696880;82;21061;-70
2022/02/18 00:15:33;;;;;;;33.83;18.37;;;;;;;4.29;100.00;96173.94;1711367;82;21118;-70
2022/02/18 00:18:02;;;;;;;32.20;18.93;;;;;;;4.30;100.00;96157.37;1723297;82;21010;-71
2022/02/18 00:20:31;;;;;;;33.23;18.90;;;;;;;4.33;100.00;96150.23;1727938;80;21066;-72
2022/02/18 00:23:00;;;;;;;31.57;18.67;;;;;;;4.34;100.00;96142.52;1744136;79;21069;-71
2022/02/18 00:25:27;;;;;;;31.00;18.40;;;;;;;4.36;100.00;96127.05;1760392;79;21060;-71
2022/02/18 00:27:56;;;;;;;35.07;19.33;;;;;;;4.36;100.00;96118.50;1788002;78;21077;-71
2022/02/18 00:30:24;;;;;;;34.90;19.83;;;;;;;4.38;100.00;96097.69;1782090;79;21140;-70
2022/02/18 00:32:51;;;;;;;37.20;20.03;;;;;;;4.39;100.00;96094.48;1779983;79;21569;-71
2022/02/18 00:35:19;;;;;;;35.57;19.30;;;;;;;4.39;100.00;96086.45;1791108;79;21510;-71
2022/02/18 00:37:52;;;;;;;32.77;18.23;;;;;;;4.42;100.00;96081.19;1789146;79;21009;-71
2022/02/18 00:40:19;;;;;;;35.20;19.90;;;;;;;4.43;100.00;96078.30;1809806;79;21041;-71
2022/02/18 00:42:47;;;;;;;36.53;20.33;;;;;;;4.46;100.00;96082.35;1796209;79;21065;-72
2022/02/18 00:45:15;;;;;;;31.93;19.07;;;;;;;4.48;100.00;96061.53;1781525;79;21045;-72
2022/02/18 00:47:42;;;;;;;34.80;18.83;;;;;;;4.51;100.00;96055.73;1782672;79;21486;-71
2022/02/18 00:50:11;;;;;;;34.27;19.13;;;;;;;4.53;100.00;96050.96;1794551;79;21518;-72
2022/02/18 00:52:38;;;;;;;34.23;20.83;;;;;;;4.54;100.00;96038.70;1813205;79;21518;-73
2022/02/18 00:55:06;;;;;;;33.97;19.00;;;;;;;4.56;100.00;96033.93;1785689;79;21526;-71
2022/02/18 00:57:36;;;;;;;30.93;18.57;;;;;;;4.58;100.00;96010.96;1786146;79;21023;-72
2022/02/18 01:00:05;;;;;;;33.03;20.43;;;;;;;4.62;100.00;96003.28;1798099;79;20978;-71
2022/02/18 01:02:32;;;;;;;35.30;19.70;;;;;;;4.63;100.00;95996.37;1794318;79;21128;-72
2022/02/18 01:04:59;;;;;;;34.40;19.87;;;;;;;4.63;100.00;95993.69;1791411;79;21081;-72
2022/02/18 01:07:26;;;;;;;33.50;19.43;;;;;;;4.64;100.00;95985.13;1753855;79;21022;-70
2022/02/18 01:09:54;;;;;;;34.80;19.73;;;;;;;4.65;100.00;95972.06;1794150;79;21153;-71
2022/02/18 01:12:22;;;;;;;33.60;19.10;;;;;;;4.65;100.00;95990.78;1806400;79;21494;-71
2022/02/18 01:14:51;;;;;;;31.90;19.03;;;;;;;4.64;100.00;96019.41;1800221;79;21021;-71
2022/02/18 01:17:18;;;;;;;33.13;18.20;;;;;;;4.65;100.00;96007.64;1781354;79;21037;-71
2022/02/18 01:19:46;;;;;;;30.33;17.67;;;;;;;4.65;100.00;96002.30;1788264;79;21022;-71
2022/02/18 01:22:13;;;;;;;34.90;18.87;;;;;;;4.65;100.00;96000.95;1785348;79;20975;-71
2022/02/18 01:24:41;;;;;;;35.23;20.10;;;;;;;4.66;100.00;95988.41;1795610;79;21039;-71
2022/02/18 01:27:08;;;;;;;32.93;19.40;;;;;;;4.66;100.00;95977.71;1784884;79;21014;-71
2022/02/18 01:29:39;;;;;;;34.07;20.13;;;;;;;4.66;100.00;95979.05;1807764;79;21006;-70
2022/02/18 01:32:12;;;;;;;34.47;20.30;;;;;;;4.66;100.00;95971.83;1788470;79;21476;-71
2022/02/18 01:34:40;;;;;;;33.87;19.17;;;;;;;4.68;100.00;95978.29;1792475;79;21103;-71
2022/02/18 01:37:08;;;;;;;34.27;19.43;;;;;;;4.68;100.00;95980.44;1800211;79;21011;-70
2022/02/18 01:39:34;;;;;;;33.33;19.47;;;;;;;4.69;100.00;95974.55;1702737;82;21021;-71
2022/02/18 01:42:03;;;;;;;34.47;19.97;;;;;;;4.71;100.00;95972.45;1751307;81;21011;-71
2022/02/18 01:44:42;;;;;;;34.47;19.10;;;;;;;4.69;100.00;95968.70;1764390;80;21492;-71
2022/02/18 01:47:17;;;;;;;35.80;18.63;;;;;;;4.71;100.00;95959.91;1680638;84;21082;-71
2022/02/18 01:49:44;;;;;;;;;;;;;;;4.73;100.00;95948.44;1662828;86;21010;-70
2022/02/18 01:52:11;;;;;;;35.13;19.73;;;;;;;4.74;100.00;95943.36;1654498;86;20130;-71
2022/02/18 01:54:38;;;;;;;36.57;21.50;;;;;;;4.75;100.00;95926.80;1653560;87;21074;-71
2022/02/18 01:57:05;;;;;;;34.90;20.77;;;;;;;4.75;100.00;95923.59;1629718;87;21049;-71
2022/02/18 01:59:32;;;;;;;33.37;20.60;;;;;;;4.76;100.00;95923.06;1645427;87;21117;-71
2022/02/18 02:01:59;;;;;;;34.13;19.57;;;;;;;4.78;100.00;95924.16;1643260;86;21093;-69
2022/02/18 02:04:29;;;;;;;32.67;19.17;;;;;;;4.78;100.00;95927.67;1645449;85;21038;-70
2022/02/18 02:06:59;;;;;;;35.13;19.73;;;;;;;4.81;100.00;95923.70;1657940;86;21015;-71
2022/02/18 02:09:26;;;;;;;33.20;18.87;;;;;;;4.83;100.00;95914.91;1635941;86;21049;-69
2022/02/18 02:11:54;;;;;;;36.07;19.53;;;;;;;4.85;100.00;95915.48;1663613;83;21195;-70
2022/02/18 02:14:21;;;;;;;36.97;18.97;;;;;;;4.85;100.00;95909.63;1618630;88;21319;-70
2022/02/18 02:16:49;;;;;;;32.67;19.10;;;;;;;4.86;100.00;95920.60;1658004;83;21101;-69
2022/02/18 02:19:16;;;;;;;35.13;19.17;;;;;;;4.87;100.00;95914.22;1636728;86;20998;-70
2022/02/18 02:21:51;;;;;;;31.90;18.90;;;;;;;4.86;100.00;95918.46;1662642;84;21113;-70
2022/02/18 02:24:19;;;;;;;36.73;18.60;;;;;;;4.86;100.00;95929.16;1639632;86;21069;-70
2022/02/18 02:26:46;;;;;;;33.23;18.67;;;;;;;4.85;100.00;95932.38;1605572;87;21055;-70
2022/02/18 02:29:14;;;;;;;33.57;18.37;;;;;;;4.85;100.00;95935.55;1648450;86;21100;-70
2022/02/18 02:31:43;;;;;;;34.17;19.13;;;;;;;4.86;100.00;95931.31;1622286;87;21054;-69
2022/02/18 02:34:10;;;;;;;34.00;18.20;;;;;;;4.86;100.00;95945.23;1598772;88;21616;-69
2022/02/18 02:36:38;;;;;;;34.07;19.40;;;;;;;4.86;100.00;95953.25;1609008;87;21059;-70
2022/02/18 02:39:05;;;;;;;36.03;19.63;;;;;;;4.85;100.00;95964.50;1623037;87;21054;-70
2022/02/18 02:41:34;;;;;;;35.07;19.43;;;;;;;4.85;100.00;95968.52;1665869;85;21079;-69
2022/02/18 02:44:01;;;;;;;36.53;20.37;;;;;;;4.87;100.00;95985.14;1692760;83;21042;-69
2022/02/18 02:46:28;;;;;;;33.87;19.53;;;;;;;4.86;100.00;95992.06;1691884;83;21061;-70
2022/02/18 02:48:56;;;;;;;33.17;19.10;;;;;;;4.86;100.00;96001.44;1690263;84;21610;-71
2022/02/18 02:51:25;;;;;;;34.03;19.43;;;;;;;4.87;100.00;96003.05;1669939;84;21106;-70
2022/02/18 02:53:52;;;;;;;34.03;19.27;;;;;;;4.86;100.00;96000.91;1700685;83;21031;-68
2022/02/18 02:56:19;;;;;;;33.43;18.80;;;;;;;4.87;100.00;96013.25;1710234;82;20997;-69
2022/02/18 02:58:49;;;;;;;34.00;19.77;;;;;;;4.87;100.00;96018.61;1694514;83;21546;-70
2022/02/18 03:01:16;;;;;;;34.73;19.50;;;;;;;4.86;100.00;96016.96;1724333;82;21054;-70
2022/02/18 03:03:45;;;;;;;37.53;20.07;;;;;;;4.87;100.00;96009.23;1725021;82;21082;-70
2022/02/18 03:06:12;;;;;;;38.13;19.77;;;;;;;4.86;100.00;96020.17;1698548;83;21042;-70
2022/02/18 03:08:40;;;;;;;41.00;20.27;;;;;;;4.86;100.00;96022.31;1714661;82;21170;-69
2022/02/18 03:11:17;;;;;;;34.43;19.70;;;;;;;4.88;100.00;96020.75;1687552;82;21037;-68
2022/02/18 03:13:53;;;;;;;34.70;19.67;;;;;;;4.87;100.00;96018.61;1601276;88;21113;-70
2022/02/18 03:16:21;;;;;;;39.63;21.80;;;;;;;4.88;100.00;96018.07;1586289;89;21563;-70
2022/02/18 03:18:48;;;;;;;35.33;20.30;;;;;;;4.88;100.00;96019.41;1615302;88;21673;-70
2022/02/18 03:21:15;;;;;;;34.57;19.40;;;;;;;4.89;100.00;96012.48;1586420;89;21128;-70
2022/02/18 03:23:47;;;;;;;37.03;19.23;;;;;;;4.90;100.00;96003.92;1606408;87;21121;-69
2022/02/18 03:26:15;;;;;;;34.27;19.57;;;;;;;4.90;100.00;96010.08;1608415;88;21122;-70
2022/02/18 03:28:44;;;;;;;32.40;20.33;;;;;;;4.90;100.00;96010.62;1607817;88;21156;-70
2022/02/18 03:31:14;;;;;;;36.33;20.53;;;;;;;4.89;100.00;96006.33;1604626;88;21097;-70
2022/02/18 03:33:41;;;;;;;33.77;20.07;;;;;;;4.88;100.00;96018.07;1580162;90;21062;-69
2022/02/18 03:36:09;;;;;;;35.10;20.03;;;;;;;4.88;100.00;96002.81;1607707;88;22270;-70
2022/02/18 03:38:36;;;;;;;34.63;20.57;;;;;;;4.89;100.00;96004.98;1606932;87;21084;-70
2022/02/18 03:41:03;;;;;;;33.57;20.10;;;;;;;4.88;100.00;96020.75;1605177;88;21601;-70
2022/02/18 03:43:31;;;;;;;39.47;21.43;;;;;;;4.86;100.00;96044.26;1595618;89;21103;-70
2022/02/18 03:46:00;;;;;;;36.33;20.63;;;;;;;4.85;100.00;96053.33;1605437;88;21534;-70
2022/02/18 03:48:30;;;;;;;34.33;19.90;;;;;;;4.83;100.00;96072.82;1602220;87;21581;-70
2022/02/18 03:50:57;;;;;;;35.57;21.47;;;;;;;4.84;100.00;96082.49;1617662;86;21102;-70
2022/02/18 03:53:26;;;;;;;33.90;19.73;;;;;;;4.82;100.00;96086.73;1692069;83;21175;-70
2022/02/18 03:55:55;;;;;;;37.03;21.40;;;;;;;4.80;100.00;96096.02;1735909;82;21045;-68
2022/02/18 03:58:22;;;;;;;35.23;20.63;;;;;;;4.80;100.00;96105.39;1730761;82;21093;-69
2022/02/18 04:00:49;;;;;;;33.63;20.83;;;;;;;4.78;100.00;96102.97;1732773;82;20981;-70
2022/02/18 04:03:16;;;;;;;35.77;20.63;;;;;;;4.80;100.00;96104.05;1723507;82;21015;-70
2022/02/18 04:05:45;;;;;;;35.10;20.07;;;;;;;4.79;100.00;96093.88;1663164;85;21081;-70
2022/02/18 04:08:18;;;;;;;35.03;19.87;;;;;;;4.79;100.00;96107.80;1653388;86;21530;-69
2022/02/18 04:10:45;;;;;;;36.17;20.93;;;;;;;4.79;100.00;96114.48;1661395;85;21108;-70
2022/02/18 04:13:14;;;;;;;35.73;21.40;;;;;;;4.77;100.00;96117.38;1629648;87;21081;-69
2022/02/18 04:15:42;;;;;;;35.07;20.63;;;;;;;4.75;100.00;96133.67;1638874;87;21063;-71
2022/02/18 04:18:10;;;;;;;35.47;20.40;;;;;;;4.75;100.00;96139.02;1630773;87;21125;-70
2022/02/18 04:20:41;;;;;;;39.70;20.87;;;;;;;4.77;100.00;96124.61;1630194;87;21094;-71
2022/02/18 04:23:10;;;;;;;39.67;22.63;;;;;;;4.77;100.00;96120.06;1629956;87;21062;-70
2022/02/18 04:25:37;;;;;;;45.67;24.83;;;;;;;4.75;100.00;96119.48;1634353;87;21032;-71
2022/02/18 04:28:07;;;;;;;35.80;21.73;;;;;;;4.75;100.00;96124.84;1640042;87;21086;-71
2022/02/18 04:30:34;;;;;;;39.57;21.83;;;;;;;4.73;100.00;96130.41;1626726;87;21530;-71
2022/02/18 04:33:02;;;;;;;35.90;23.10;;;;;;;4.70;100.00;96140.23;1610036;88;21585;-71
2022/02/18 04:35:29;;;;;;;36.00;20.50;;;;;;;4.71;100.00;96148.56;1645130;87;21063;-71
2022/02/18 04:37:56;;;;;;;32.27;21.20;;;;;;;4.71;100.00;96154.41;1694432;84;21079;-71
2022/02/18 04:40:23;;;;;;;41.20;22.73;;;;;;;4.68;100.00;96166.41;1691091;84;21030;-71
2022/02/18 04:42:50;;;;;;;38.30;21.93;;;;;;;4.65;100.00;96178.09;1717108;80;21038;-71
2022/02/18 04:45:17;;;;;;;39.40;21.80;;;;;;;4.63;100.00;96188.21;1757332;80;21017;-71
2022/02/18 04:47:45;;;;;;;39.57;21.87;;;;;;;4.61;100.00;96193.78;1751221;80;21077;-71
2022/02/18 04:50:12;;;;;;;42.73;24.03;;;;;;;4.59;100.00;96195.88;1757459;80;21003;-70
2022/02/18 04:52:39;;;;;;;38.60;23.33;;;;;;;4.55;100.00;96194.17;1756064;80;21069;-68
2022/02/18 04:55:07;;;;;;;38.97;23.37;;;;;;;4.53;100.00;96213.66;1756011;80;21089;-69
2022/02/18 04:57:35;;;;;;;43.97;24.60;;;;;;;4.52;100.00;96220.56;1791381;80;21013;-69
2022/02/18 05:00:05;;;;;;;45.33;25.97;;;;;;;4.50;100.00;96219.98;1755528;80;20986;-69
2022/02/18 05:02:32;;;;;;;44.53;25.27;;;;;;;4.48;100.00;96221.54;1754283;80;21498;-69
2022/02/18 05:04:59;;;;;;;43.77;25.73;;;;;;;4.47;100.00;96232.46;1755150;80;21537;-70
2022/02/18 05:07:26;;;;;;;42.67;26.30;;;;;;;4.45;100.00;96247.40;1753337;80;21115;-70
2022/02/18 05:09:53;;;;;;;42.93;24.87;;;;;;;4.40;100.00;96241.09;1783340;80;21817;-70
2022/02/18 05:12:22;;;;;;;41.17;24.77;;;;;;;4.37;100.00;96243.18;1788796;80;21053;-70
2022/02/18 05:14:49;;;;;;;40.73;25.60;;;;;;;4.37;100.00;96239.17;1784520;80;20989;-69
2022/02/18 05:17:16;;;;;;;42.27;25.27;;;;;;;4.35;100.00;96244.43;1782305;80;21010;-69
2022/02/18 05:19:43;;;;;;;41.43;25.13;;;;;;;4.33;100.00;96250.00;1753783;80;21026;-69
2022/02/18 05:22:09;;;;;;;42.20;26.37;;;;;;;4.33;100.00;96250.53;1757152;80;20975;-69
2022/02/18 05:24:37;;;;;;;47.87;26.57;;;;;;;4.31;100.00;96251.28;1757800;80;21088;-69
2022/02/18 05:27:05;;;;;;;43.67;25.93;;;;;;;4.27;100.00;96273.64;1786481;80;21029;-67
2022/02/18 05:29:35;;;;;;;41.00;25.70;;;;;;;4.25;100.00;96285.58;1788062;80;21188;-71
2022/02/18 05:32:04;;;;;;;39.27;23.80;;;;;;;4.21;100.00;96298.58;1757214;80;21037;-70
2022/02/18 05:34:31;;;;;;;46.77;29.43;;;;;;;4.21;100.00;96304.45;1758252;80;21025;-69
2022/02/18 05:36:58;;;;;;;41.87;26.27;;;;;;;4.18;100.00;96310.55;1754631;80;21554;-68
2022/02/18 05:39:25;;;;;;;44.80;26.70;;;;;;;4.16;100.00;96315.31;1755377;80;21060;-69
2022/02/18 05:41:52;;;;;;;42.27;24.23;;;;;;;4.13;100.00;96307.72;1782763;80;21233;-69
2022/02/18 05:44:19;;;;;;;41.00;26.87;;;;;;;4.12;100.00;96309.28;1754982;80;21003;-69
2022/02/18 05:46:46;;;;;;;38.03;24.23;;;;;;;4.11;100.00;96314.34;1756495;80;21026;-69
2022/02/18 05:49:14;;;;;;;40.20;23.87;;;;;;;4.13;100.00;96319.75;1755438;80;21033;-69
2022/02/18 05:51:40;;;;;;;42.97;25.33;;;;;;;4.12;100.00;96314.09;1785405;80;21010;-70
2022/02/18 05:54:07;;;;;;;38.67;24.53;;;;;;;4.10;100.00;96316.18;1757035;80;21054;-71
2022/02/18 05:56:36;;;;;;;37.07;22.27;;;;;;;4.09;100.00;96321.25;1757722;80;21034;-69
2022/02/18 05:59:03;;;;;;;38.63;22.63;;;;;;;4.07;100.00;96310.45;1785805;80;21092;-72
2022/02/18 06:01:30;;;;;;;39.67;23.17;;;;;;;4.08;100.00;96315.59;1755486;80;20986;-70
2022/02/18 06:03:57;;;;;;;40.37;26.43;;;;;;;4.08;100.00;96320.13;1787622;80;21053;-70
2022/02/18 06:06:27;;;;;;;40.13;24.40;;;;;;;4.07;100.00;96315.31;1743960;81;21030;-69
2022/02/18 06:08:55;;;;;;;38.77;23.00;;;;;;;4.06;100.00;96301.62;1720220;82;21022;-68
2022/02/18 06:11:24;;;;;;;38.50;24.77;;;;;;;4.07;100.00;96296.59;1732927;82;21074;-70
2022/02/18 06:13:51;;;;;;;36.37;24.40;;;;;;;4.10;100.00;96300.66;1735051;81;21509;-70
2022/02/18 06:16:19;;;;;;;43.77;28.30;;;;;;;4.11;100.00;96307.66;1718230;82;21050;-70
2022/02/18 06:18:45;;;;;;;52.77;35.97;;;;;;;4.12;100.00;96305.27;1719586;82;21434;-69
2022/02/18 06:21:13;;;;;;;40.67;26.77;;;;;;;4.12;100.00;96318.11;1737388;82;21537;-70
2022/02/18 06:23:40;;;;;;;39.63;23.80;;;;;;;4.14;100.00;96317.39;1718962;82;21078;-69
2022/02/18 06:26:06;;;;;;;36.40;22.00;;;;;;;4.14;100.00;96325.41;1721392;82;21573;-70
2022/02/18 06:28:34;;;;;;;38.80;22.73;;;;;;;4.16;100.00;96333.19;1731859;81;21062;-70
2022/02/18 06:31:00;;;;;;;41.60;24.40;;;;;;;4.20;100.00;96337.08;1685654;82;21537;-69
2022/02/18 06:33:29;;;;;;;38.57;25.53;;;;;;;4.19;100.00;96338.91;1718595;82;21183;-69
2022/02/18 06:35:56;;;;;;;43.53;26.00;;;;;;;4.16;100.00;96341.20;1739659;82;21167;-71
2022/02/18 06:38:24;;;;;;;37.67;23.53;;;;;;;4.17;100.00;96345.00;1744900;80;21033;-70
2022/02/18 06:40:56;;;;;;;37.57;23.33;;;;;;;4.19;100.00;96345.59;1751010;80;21049;-70
2022/02/18 06:43:23;;;;;;;32.53;21.57;;;;;;;4.22;100.00;96347.02;1724731;81;21030;-69
2022/02/18 06:45:51;;;;;;;34.87;21.00;;;;;;;4.25;100.00;96342.58;1754475;81;21522;-69
2022/02/18 06:48:19;;;;;;;37.67;24.60;;;;;;;4.28;100.00;96348.80;1726960;80;20983;-68
2022/02/18 06:50:46;;;;;;;40.80;26.67;;;;;;;4.27;100.00;96351.20;1703398;81;21026;-73
2022/02/18 06:53:15;;;;;;;35.40;22.67;;;;;;;4.28;100.00;96350.66;1756977;81;21577;-70
2022/02/18 06:55:42;;;;;;;41.70;26.30;;;;;;;4.33;100.00;96332.91;1751054;81;21139;-69
2022/02/18 06:58:09;;;;;;;48.43;27.60;;;;;;;4.41;100.00;96330.48;1725120;81;21511;-71
2022/02/18 07:00:37;;;;;;;55.40;34.30;;;;;;;4.49;100.00;96334.70;1753416;80;21034;-69
2022/02/18 07:03:04;;;;;;;55.97;36.83;;;;;;;4.55;100.00;96343.16;1726675;82;21100;-69
2022/02/18 07:05:31;;;;;;;42.77;28.73;;;;;;;4.63;100.00;96337.52;1724881;82;21030;-69
2022/02/18 07:07:58;;;;;;;45.93;29.27;;;;;;;4.71;100.00;96323.02;1725723;81;21097;-69
2022/02/18 07:10:25;;;;;;;42.93;27.27;;;;;;;4.78;100.00;96314.41;1727004;81;21006;-70
2022/02/18 07:12:52;;;;;;;54.47;28.03;;;;;;;4.83;100.00;96321.74;1727941;79;20996;-68
2022/02/18 07:15:20;;;;;;;33.90;20.00;;;;;;;4.90;100.00;96323.81;1730737;81;21073;-69
2022/02/18 07:17:47;;;;;;;33.60;20.20;;;;;;;4.89;100.00;96335.05;1753190;81;21122;-69
2022/02/18 07:20:15;;;;;;;35.10;22.07;;;;;;;4.84;100.00;96346.95;1759439;81;21112;-69
2022/02/18 07:22:42;;;;;;;38.47;22.10;;;;;;;4.82;100.00;96354.92;1683468;81;21493;-71
2022/02/18 07:25:10;;;;;;;38.70;22.33;;;;;;;4.85;100.00;96363.32;1732980;80;21530;-70
2022/02/18 07:27:37;;;;;;;31.80;18.07;;;;;;;4.89;100.00;96379.75;1716787;81;21026;-70
2022/02/18 07:30:06;;;;;;;30.10;17.27;;;;;;;4.94;100.00;96395.43;1724330;81;21093;-69
2022/02/18 07:32:33;;;;;;;30.30;18.57;;;;;;;5.02;100.00;96396.97;1745231;81;20999;-69
2022/02/18 07:35:00;;;;;;;35.07;21.97;;;;;;;5.10;100.00;96402.56;1746291;80;21040;-70
2022/02/18 07:37:27;;;;;;;29.73;17.63;;;;;;;5.17;100.00;96405.13;1736913;82;21099;-69
2022/02/18 07:39:54;;;;;;;29.37;17.37;;;;;;;5.19;100.00;96409.73;1762027;81;21070;-68
2022/02/18 07:42:21;;;;;;;27.63;16.90;;;;;;;5.16;100.00;96421.73;1687689;83;20990;-68
2022/02/18 07:44:48;;;;;;;33.60;20.93;;;;;;;5.17;100.00;96422.55;1713393;81;21045;-67
2022/02/18 07:47:16;;;;;;;30.97;18.40;;;;;;;5.19;100.00;96429.33;1726018;82;21064;-69
2022/02/18 07:49:43;;;;;;;36.30;22.67;;;;;;;5.18;100.00;96448.30;1738613;81;21081;-67
2022/02/18 07:52:11;;;;;;;28.03;17.77;;;;;;;5.20;100.00;96468.44;1769497;80;21026;-70
2022/02/18 07:54:38;;;;;;;30.17;16.63;;;;;;;5.20;100.00;96476.48;1773369;80;21027;-70
2022/02/18 07:57:05;;;;;;;29.90;16.37;;;;;;;5.25;100.00;96502.60;1749070;80;21042;-69
2022/02/18 07:59:34;;;;;;;26.10;15.90;;;;;;;5.29;100.00;96514.00;1748448;80;21515;-68
2022/02/18 08:02:01;;;;;;;30.20;17.00;;;;;;;5.30;100.00;96537.58;1750089;80;21061;-67
2022/02/18 08:04:28;;;;;;;27.23;16.37;;;;;;;5.29;100.00;96555.52;1747747;80;21027;-67
2022/02/18 08:06:56;;;;;;;30.77;15.90;;;;;;;5.32;100.00;96565.77;1745727;82;21042;-69
2022/02/18 08:09:23;;;;;;;27.10;16.50;;;;;;;5.38;100.00;96587.35;1758045;80;21023;-69
2022/02/18 08:11:51;;;;;;;29.80;17.60;;;;;;;5.42;100.00;96601.94;1755883;81;21058;-69
2022/02/18 08:14:20;;;;;;;32.23;17.70;;;;;;;5.43;100.00;96619.66;1756889;80;21068;-68
2022/02/18 08:16:47;;;;;;;32.00;18.30;;;;;;;5.44;100.00;96642.75;1752848;80;21073;-69
2022/02/18 08:19:20;;;;;;;34.33;20.10;;;;;;;5.46;100.00;96655.40;1723860;81;21065;-68
2022/02/18 08:21:49;;;;;;;43.33;23.97;;;;;;;5.47;100.00;96673.09;1760157;80;21523;-68
2022/02/18 08:24:18;;;;;;;32.37;18.50;;;;;;;5.49;100.00;96685.78;1766095;80;20948;-68
2022/02/18 08:26:50;;;;;;;41.93;25.60;;;;;;;5.54;100.00;96703.86;1755387;80;21029;-68
2022/02/18 08:29:21;;;;;;;44.13;26.33;;;;;;;5.57;100.00;96713.63;1758249;80;21019;-68
2022/02/18 08:31:51;;;;;;;31.13;18.33;;;;;;;5.61;100.00;96731.42;1764767;80;21034;-68
2022/02/18 08:34:19;;;;;;;24.87;14.70;;;;;;;5.69;100.00;96744.55;1728743;82;21602;-68
2022/02/18 08:36:46;;;;;;;25.30;13.93;;;;;;;5.75;100.00;96750.88;1717410;82;21164;-68
2022/02/18 08:39:13;;;;;;;28.73;15.97;;;;;;;5.80;100.00;96760.42;1738924;82;21074;-67
2022/02/18 08:41:40;;;;;;;36.00;20.17;;;;;;;5.85;100.00;96770.78;1703338;82;21100;-68
2022/02/18 08:44:07;;;;;;;35.20;20.47;;;;;;;5.93;100.00;96789.78;1723744;82;21522;-69
2022/02/18 08:46:35;;;;;;;27.50;16.17;;;;;;;5.98;100.00;96806.06;1730477;82;21031;-64
2022/02/18 08:49:03;;;;;;;27.80;18.33;;;;;;;6.05;100.00;96815.39;1731426;81;21091;-70
2022/02/18 08:51:34;;;;;;;32.87;19.13;;;;;;;6.20;100.00;96821.77;1731787;82;21632;-69
2022/02/18 08:54:01;;;;;;;31.70;18.83;;;;;;;6.33;100.00;96836.38;1725090;82;21061;-70
2022/02/18 08:56:38;;;;;;;32.97;19.37;;;;;;;6.46;100.00;96844.80;1705118;82;21241;-69
2022/02/18 08:59:06;;;;;;;46.03;27.20;;;;;;;6.54;100.00;96860.63;1717009;81;21026;-68
2022/02/18 09:01:32;;;;;;;36.87;26.57;;;;;;;6.59;100.00;96868.02;1732240;82;21081;-69
2022/02/18 09:03:59;;;;;;;54.47;35.73;;;;;;;6.60;100.00;96883.06;1735143;82;21111;-72
2022/02/18 09:06:26;;;;;;;33.10;19.77;;;;;;;6.60;100.00;96900.52;1728562;82;21171;-70
2022/02/18 09:08:54;;;;;;;21.97;11.87;;;;;;;6.57;100.00;96927.80;1707682;81;21033;-68
2022/02/18 09:11:21;;;;;;;42.90;26.93;;;;;;;6.50;100.00;96932.41;1730065;82;21022;-71
2022/02/18 09:13:48;;;;;;;23.30;12.60;;;;;;;6.33;100.00;96958.47;1735710;82;21101;-69
2022/02/18 09:16:17;;;;;;;25.87;14.83;;;;;;;6.18;100.00;96981.62;1731460;81;21053;-69
2022/02/18 09:18:49;;;;;;;;;;;;;;;6.12;100.00;96994.55;1729509;82;21057;-69
2022/02/18 09:21:21;;;;;;;23.97;15.43;;;;;;;6.14;100.00;96992.46;1736817;82;20440;-67
2022/02/18 09:23:48;;;;;;;28.10;18.30;;;;;;;6.35;100.00;96991.28;1736930;82;21022;-68
2022/02/18 09:26:15;;;;;;;32.63;27.63;;;;;;;6.76;100.00;96984.51;1732542;81;21037;-70
2022/02/18 09:28:43;;;;;;;23.17;15.10;;;;;;;7.09;100.00;96975.83;1728479;82;21117;-69
2022/02/18 09:31:11;;;;;;;21.63;12.60;;;;;;;7.19;100.00;96974.79;1735966;80;21049;-68
2022/02/18 09:33:40;;;;;;;16.20;8.60;;;;;;;7.20;100.00;96986.63;1758894;80;20999;-70
2022/02/18 09:36:08;;;;;;;23.37;12.57;;;;;;;7.21;100.00;96995.00;1750213;80;21073;-70
2022/02/18 09:38:36;;;;;;;37.33;29.03;;;;;;;7.17;100.00;97005.91;1744991;81;21023;-70
2022/02/18 09:41:06;;;;;;;30.83;22.87;;;;;;;7.13;100.00;97020.82;1737355;81;21086;-70
2022/02/18 09:43:34;;;;;;;40.00;32.50;;;;;;;7.16;100.00;97028.45;1754814;80;21095;-71
2022/02/18 09:46:03;;;;;;;32.40;18.60;;;;;;;7.30;100.00;97028.31;1769101;80;21049;-69
2022/02/18 09:48:30;;;;;;;13.07;6.57;;;;;;;7.40;100.00;97033.96;1782968;80;21044;-68
2022/02/18 09:50:57;;;;;;;17.83;12.10;;;;;;;7.46;100.00;97041.68;1739287;80;21081;-72
2022/02/18 09:53:25;;;;;;;9.50;5.97;;;;;;;7.45;100.00;97042.18;1690789;82;21129;-70
2022/02/18 09:55:52;;;;;;;8.37;5.43;;;;;;;7.43;100.00;97037.55;1679042;83;21042;-70
2022/02/18 09:58:22;;;;;;;11.93;6.30;;;;;;;7.30;100.00;97032.34;1723693;80;21073;-67
2022/02/18 10:00:48;;;;;;;10.33;5.90;;;;;;;7.17;100.00;97040.84;1726740;81;21058;-67
2022/02/18 10:03:15;;;;;;;9.57;5.80;;;;;;;7.11;100.00;97044.94;1734479;80;21080;-67
2022/02/18 10:05:42;;;;;;;7.33;5.00;;;;;;;7.06;100.00;97054.18;1698162;81;21428;-67
2022/02/18 10:11:05;;;;;;;99.53;71.83;;;;;;;6.83;100.00;97084.66;1680175;83;21020;-67
2022/02/18 10:13:40;;;;;;;13.30;7.90;;;;;;;6.65;100.00;97108.75;1675643;83;21058;-68
2022/02/18 10:16:18;;;;;;;15.38;9.98;;;;;;;6.51;100.00;97111.23;1661063;85;21605;-68
2022/02/18 10:18:58;;;;;;;16.53;10.40;;;;;;;6.38;100.00;97125.04;1581649;89;21069;-68
2022/02/18 10:21:33;;;;;;;17.50;11.27;;;;;;;6.24;100.00;97143.59;1593475;88;21222;-67
2022/02/18 10:24:12;;;;;;;17.33;11.37;;;;;;;6.21;100.00;97144.83;1573944;89;21103;-68
2022/02/18 10:26:47;;;;;;;22.60;14.87;;;;;;;6.28;100.00;97148.83;1579932;88;21185;-67
2022/02/18 10:29:21;;;;;;;21.83;13.00;;;;;;;6.41;100.00;97144.75;1573133;90;21211;-69
2022/02/18 10:32:15;;;;;;;26.77;16.15;;;;;;;6.43;100.00;97160.11;1568553;89;21091;-70
2022/02/18 10:35:00;;;;;;;17.07;10.82;;;;;;;6.45;100.00;97161.23;1550411;89;21046;-69
2022/02/18 10:37:30;;;;;;;12.57;8.77;;;;;;;6.40;100.00;97172.61;1586585;89;21128;-70
2022/02/18 10:40:15;;;;;;;22.97;15.37;;;;;;;6.25;100.00;97184.12;1548801;90;21095;-69
2022/02/18 10:42:44;;;;;;;10.33;7.50;;;;;;;6.11;100.00;97199.48;1515856;92;21224;-68
2022/02/18 10:45:23;;;;;;;13.83;8.60;;;;;;;5.98;100.00;97205.70;1519124;92;21224;-70
2022/02/18 10:48:07;;;;;;;21.60;11.93;;;;;;;5.88;100.00;97211.48;1508458;93;21062;-69
2022/02/18 10:50:34;;;;;;;;;;;;;;;5.84;100.00;97218.31;1516681;92;21193;-69
2022/02/18 10:53:19;;;;;;;24.30;13.07;;;;;;;5.80;100.00;97217.59;1518602;92;20134;-69
2022/02/18 10:55:58;;;;;;;20.27;10.80;;;;;;;5.75;100.00;97230.80;1534059;92;21725;-69
2022/02/18 10:58:28;;;;;;;21.67;12.73;;;;;;;5.68;100.00;97230.80;1529612;92;21154;-68
2022/02/18 11:01:06;;;;;;;15.97;9.53;;;;;;;5.61;100.00;97228.15;1532231;92;21156;-69
2022/02/18 11:03:34;;;;;;;29.87;22.20;;;;;;;5.59;100.00;97231.53;1516390;92;21063;-68
2022/02/18 11:06:31;;;;;;;17.53;10.23;;;;;;;5.56;100.00;97232.45;1527550;92;21155;-70
2022/02/18 11:09:10;;;;;;;233.60;147.50;;;;;;;5.57;100.00;97238.14;1513689;92;21053;-70
2022/02/18 11:11:44;;;;;;;36.67;23.10;;;;;;;5.52;100.00;97238.75;1528424;92;21237;-70
2022/02/18 11:14:17;;;;;;;21.10;10.80;;;;;;;5.50;100.00;97239.48;1548483;87;21103;-69
2022/02/18 11:16:55;;;;;;;20.23;9.80;;;;;;;5.49;100.00;97244.55;1548691;89;21696;-70
2022/02/18 11:21:52;;;;;;;18.63;11.10;;;;;;;5.40;100.00;97257.33;1530907;91;21153;-68
2022/02/18 11:24:24;;;;;;;15.30;7.10;;;;;;;5.31;100.00;97257.20;1512024;93;21119;-68
2022/02/18 11:26:52;;;;;;;18.33;8.73;;;;;;;5.23;100.00;97267.61;1529763;93;21711;-67
2022/02/18 11:29:20;;;;;;;15.47;8.20;;;;;;;5.13;100.00;97269.38;1529688;93;21555;-67
2022/02/18 11:31:54;;;;;;;35.30;21.33;;;;;;;5.11;100.00;97276.76;1533943;93;21093;-67